NWK34 YMML-YSSY
Flight info
| Callsign | NWK34 |
|---|---|
| Flight time | 1h 8m |
| Altitude | 37000 |
| Route | DOSEL2/34 DOSEL Y59 RIVET |
| Aircraft | A319/M-SDE3FGHIRWY/LB1 |
Departure
| Time | 2026-05-04 10:39 |
|---|---|
| Airport | Melbourne Airport (YMML) |
Arrival
| Time | 2026-05-04 11:48 |
|---|---|
| Airport | Sydney Kingsford Smith International Airport (YSSY) |
| Time | Latitude | Longitude | Altitude | Speed | Heading |
|---|---|---|---|---|---|
| 2026-05-04 10:02 | -37.67267 | 144.84768 | 387 ft | 0 kts | 171° |
| 2026-05-04 10:25 | -37.67253 | 144.84765 | 387 ft | 4 kts | 171° |
| 2026-05-04 10:25 | -37.67226 | 144.84760 | 388 ft | 4 kts | 172° |
| 2026-05-04 10:25 | -37.67204 | 144.84756 | 389 ft | 0 kts | 150° |
| 2026-05-04 10:26 | -37.67204 | 144.84757 | 389 ft | 0 kts | 150° |
| 2026-05-04 10:26 | -37.67208 | 144.84759 | 389 ft | 0 kts | 150° |
| 2026-05-04 10:30 | -37.67211 | 144.84758 | 389 ft | 1 kts | 182° |
| 2026-05-04 10:30 | -37.67210 | 144.84739 | 388 ft | 7 kts | 275° |
| 2026-05-04 10:31 | -37.67198 | 144.84636 | 387 ft | 15 kts | 266° |
| 2026-05-04 10:31 | -37.67210 | 144.84496 | 385 ft | 17 kts | 273° |
| 2026-05-04 10:32 | -37.67853 | 144.84163 | 361 ft | 12 kts | 210° |
| 2026-05-04 10:33 | -37.67872 | 144.84117 | 364 ft | 0 kts | 258° |
| 2026-05-04 10:36 | -37.67874 | 144.84106 | 361 ft | 4 kts | 258° |
| 2026-05-04 10:36 | -37.67884 | 144.84029 | 360 ft | 14 kts | 263° |
| 2026-05-04 10:36 | -37.67829 | 144.83958 | 361 ft | 1 kts | 351° |
| 2026-05-04 10:36 | -37.67827 | 144.83958 | 357 ft | 1 kts | 351° |
| 2026-05-04 10:37 | -37.67787 | 144.83950 | 358 ft | 23 kts | 351° |
| 2026-05-04 10:37 | -37.67430 | 144.83882 | 371 ft | 80 kts | 351° |
| 2026-05-04 10:37 | -37.66705 | 144.83753 | 394 ft | 129 kts | 352° |
| 2026-05-04 10:37 | -37.65763 | 144.83570 | 787 ft | 137 kts | 351° |
| 2026-05-04 10:39 | -37.58994 | 144.82476 | 3495 ft | 234 kts | 4° |
| 2026-05-04 10:39 | -37.57375 | 144.83279 | 4107 ft | 262 kts | 19° |
| 2026-05-04 10:39 | -37.55704 | 144.84310 | 4784 ft | 271 kts | 19° |
| 2026-05-04 10:40 | -37.54000 | 144.85357 | 4967 ft | 273 kts | 20° |
| 2026-05-04 10:40 | -37.52295 | 144.86407 | 5026 ft | 272 kts | 20° |
| 2026-05-04 10:40 | -37.50598 | 144.87449 | 5038 ft | 271 kts | 20° |
| 2026-05-04 10:40 | -37.48900 | 144.88484 | 5038 ft | 270 kts | 19° |
| 2026-05-04 10:41 | -37.47203 | 144.89516 | 5037 ft | 270 kts | 20° |
| 2026-05-04 10:41 | -37.45535 | 144.90535 | 5040 ft | 270 kts | 21° |
| 2026-05-04 10:41 | -37.43946 | 144.91849 | 5040 ft | 277 kts | 34° |
| 2026-05-04 10:41 | -37.42545 | 144.93673 | 5333 ft | 300 kts | 48° |
| 2026-05-04 10:42 | -37.41291 | 144.95873 | 5751 ft | 325 kts | 50° |
| 2026-05-04 10:42 | -37.39960 | 144.98224 | 6523 ft | 333 kts | 51° |
| 2026-05-04 10:42 | -37.38610 | 145.00615 | 7359 ft | 338 kts | 51° |
| 2026-05-04 10:42 | -37.37244 | 145.03036 | 8267 ft | 341 kts | 51° |
| 2026-05-04 10:43 | -37.35865 | 145.05481 | 9188 ft | 345 kts | 51° |
| 2026-05-04 10:44 | -37.25664 | 145.23461 | 15339 ft | 369 kts | 51° |
| 2026-05-04 10:45 | -37.24170 | 145.26084 | 16152 ft | 371 kts | 51° |
| 2026-05-04 10:45 | -37.22662 | 145.28735 | 16922 ft | 374 kts | 51° |
| 2026-05-04 10:45 | -37.21146 | 145.31402 | 17679 ft | 378 kts | 51° |
| 2026-05-04 10:45 | -37.19611 | 145.34099 | 18397 ft | 381 kts | 50° |
| 2026-05-04 10:46 | -37.18060 | 145.36814 | 19011 ft | 385 kts | 50° |
| 2026-05-04 10:46 | -37.16490 | 145.39551 | 19644 ft | 388 kts | 50° |
| 2026-05-04 10:46 | -37.14909 | 145.42306 | 20286 ft | 390 kts | 50° |
| 2026-05-04 10:46 | -37.13317 | 145.45083 | 20891 ft | 393 kts | 50° |
| 2026-05-04 10:47 | -37.11716 | 145.47879 | 21478 ft | 396 kts | 50° |
| 2026-05-04 10:47 | -37.10103 | 145.50695 | 22055 ft | 399 kts | 50° |
| 2026-05-04 10:47 | -37.08479 | 145.53528 | 22616 ft | 402 kts | 50° |
| 2026-05-04 10:47 | -37.06842 | 145.56380 | 23171 ft | 405 kts | 50° |
| 2026-05-04 10:49 | -36.94990 | 145.76918 | 26199 ft | 427 kts | 47° |
| 2026-05-04 10:49 | -36.93248 | 145.79928 | 26612 ft | 429 kts | 46° |
| 2026-05-04 10:50 | -36.91519 | 145.82920 | 27027 ft | 431 kts | 46° |
| 2026-05-04 10:51 | -36.78892 | 146.04617 | 29744 ft | 452 kts | 43° |
| 2026-05-04 10:52 | -36.77042 | 146.07788 | 30148 ft | 453 kts | 43° |
| 2026-05-04 10:52 | -36.75189 | 146.10966 | 30447 ft | 455 kts | 44° |
| 2026-05-04 10:52 | -36.73318 | 146.14165 | 30713 ft | 458 kts | 44° |
| 2026-05-04 10:54 | -36.59956 | 146.36960 | 32902 ft | 468 kts | 44° |
| 2026-05-04 10:54 | -36.58031 | 146.40232 | 33256 ft | 468 kts | 44° |
| 2026-05-04 10:56 | -36.44446 | 146.63167 | 35347 ft | 474 kts | 45° |
| 2026-05-04 10:56 | -36.42491 | 146.66468 | 35618 ft | 475 kts | 45° |
| 2026-05-04 10:56 | -36.40535 | 146.69769 | 35883 ft | 475 kts | 45° |
| 2026-05-04 10:57 | -36.38571 | 146.73075 | 36153 ft | 476 kts | 45° |
| 2026-05-04 10:57 | -36.36630 | 146.76331 | 36408 ft | 476 kts | 45° |
| 2026-05-04 10:57 | -36.34651 | 146.79642 | 36635 ft | 477 kts | 45° |
| 2026-05-04 10:57 | -36.32673 | 146.82950 | 36864 ft | 478 kts | 45° |
| 2026-05-04 10:58 | -36.30693 | 146.86262 | 37023 ft | 478 kts | 46° |
| 2026-05-04 10:58 | -36.26736 | 146.92886 | 37068 ft | 477 kts | 46° |
| 2026-05-04 10:59 | -36.22786 | 146.99493 | 37067 ft | 477 kts | 46° |
| 2026-05-04 10:59 | -36.18830 | 147.06082 | 37075 ft | 476 kts | 45° |
| 2026-05-04 11:00 | -36.14873 | 147.12650 | 37064 ft | 475 kts | 45° |
| 2026-05-04 11:02 | -35.99140 | 147.38680 | 37056 ft | 473 kts | 45° |
| 2026-05-04 11:05 | -35.69511 | 147.87169 | 37092 ft | 472 kts | 44° |
| 2026-05-04 11:06 | -35.66206 | 147.92527 | 37093 ft | 472 kts | 44° |
| 2026-05-04 11:06 | -35.62228 | 147.98971 | 37091 ft | 473 kts | 44° |
| 2026-05-04 11:10 | -35.34329 | 148.43878 | 37090 ft | 472 kts | 44° |
| 2026-05-04 11:12 | -35.18326 | 148.69366 | 37093 ft | 472 kts | 44° |
| 2026-05-04 11:12 | -35.14176 | 148.75512 | 37100 ft | 457 kts | 30° |
| 2026-05-04 11:13 | -35.11592 | 148.77566 | 37097 ft | 433 kts | 13° |
| 2026-05-04 11:13 | -35.08781 | 148.78629 | 37090 ft | 417 kts | 3° |
| 2026-05-04 11:13 | -35.03106 | 148.80114 | 37081 ft | 417 kts | 2° |
| 2026-05-04 11:14 | -34.97412 | 148.81561 | 37102 ft | 418 kts | 2° |
| 2026-05-04 11:16 | -34.74594 | 148.87311 | 37114 ft | 419 kts | 2° |
| 2026-05-04 11:16 | -34.68883 | 148.88747 | 37116 ft | 419 kts | 2° |
| 2026-05-04 11:17 | -34.66031 | 148.89463 | 36870 ft | 417 kts | 2° |
| 2026-05-04 11:17 | -34.63186 | 148.90180 | 36339 ft | 418 kts | 2° |
| 2026-05-04 11:19 | -34.49596 | 149.07270 | 32611 ft | 462 kts | 66° |
| 2026-05-04 11:19 | -34.48710 | 149.10976 | 32003 ft | 454 kts | 65° |
| 2026-05-04 11:19 | -34.47826 | 149.14627 | 31390 ft | 447 kts | 65° |
| 2026-05-04 11:19 | -34.46943 | 149.18204 | 30765 ft | 441 kts | 65° |
| 2026-05-04 11:20 | -34.46058 | 149.21736 | 30164 ft | 435 kts | 64° |
| 2026-05-04 11:20 | -34.45180 | 149.25220 | 29476 ft | 429 kts | 64° |
| 2026-05-04 11:20 | -34.44311 | 149.28665 | 28813 ft | 424 kts | 64° |
| 2026-05-04 11:20 | -34.43454 | 149.32061 | 28172 ft | 419 kts | 64° |
| 2026-05-04 11:22 | -34.37152 | 149.54410 | 24084 ft | 380 kts | 61° |
| 2026-05-04 11:22 | -34.36293 | 149.57428 | 23716 ft | 378 kts | 61° |
| 2026-05-04 11:23 | -34.35436 | 149.60430 | 23268 ft | 376 kts | 62° |
| 2026-05-04 11:23 | -34.34587 | 149.63401 | 22902 ft | 372 kts | 62° |
| 2026-05-04 11:24 | -34.29629 | 149.80716 | 20629 ft | 355 kts | 62° |
| 2026-05-04 11:25 | -34.28827 | 149.83494 | 20250 ft | 353 kts | 62° |
| 2026-05-04 11:25 | -34.28019 | 149.86295 | 19882 ft | 351 kts | 62° |
| 2026-05-04 11:25 | -34.27216 | 149.89075 | 19494 ft | 349 kts | 62° |
| 2026-05-04 11:26 | -34.25623 | 149.94587 | 18757 ft | 345 kts | 63° |
| 2026-05-04 11:27 | -34.20185 | 150.13336 | 16174 ft | 330 kts | 63° |
| 2026-05-04 11:28 | -34.19427 | 150.15946 | 15826 ft | 328 kts | 63° |
| 2026-05-04 11:28 | -34.18674 | 150.18540 | 15457 ft | 326 kts | 63° |
| 2026-05-04 11:28 | -34.17923 | 150.21117 | 15114 ft | 324 kts | 63° |
| 2026-05-04 11:28 | -34.17175 | 150.23679 | 14769 ft | 322 kts | 63° |
| 2026-05-04 11:29 | -34.16433 | 150.26221 | 14424 ft | 321 kts | 63° |
| 2026-05-04 11:29 | -34.15691 | 150.28755 | 14074 ft | 320 kts | 63° |
| 2026-05-04 11:29 | -34.14952 | 150.31280 | 13702 ft | 318 kts | 63° |
| 2026-05-04 11:29 | -34.14216 | 150.33794 | 13341 ft | 316 kts | 63° |
| 2026-05-04 11:31 | -34.09168 | 150.50960 | 10929 ft | 305 kts | 65° |
| 2026-05-04 11:33 | -34.05400 | 150.68143 | 8452 ft | 298 kts | 70° |
| 2026-05-04 11:33 | -34.04878 | 150.70555 | 8115 ft | 296 kts | 70° |
| 2026-05-04 11:33 | -34.04359 | 150.72950 | 7784 ft | 295 kts | 70° |
| 2026-05-04 11:34 | -34.03849 | 150.75310 | 7433 ft | 294 kts | 71° |
| 2026-05-04 11:34 | -34.03336 | 150.77687 | 7108 ft | 293 kts | 70° |
| 2026-05-04 11:34 | -34.02812 | 150.80059 | 6996 ft | 293 kts | 70° |
| 2026-05-04 11:34 | -34.02261 | 150.82426 | 7004 ft | 294 kts | 70° |
| 2026-05-04 11:35 | -34.01702 | 150.84796 | 7008 ft | 294 kts | 70° |
| 2026-05-04 11:35 | -34.01140 | 150.87168 | 7007 ft | 294 kts | 70° |
| 2026-05-04 11:35 | -34.00581 | 150.89538 | 7007 ft | 294 kts | 70° |
| 2026-05-04 11:35 | -34.00178 | 150.91952 | 7002 ft | 298 kts | 86° |
| 2026-05-04 11:36 | -34.00487 | 150.94442 | 7012 ft | 303 kts | 101° |
| 2026-05-04 11:36 | -34.01006 | 150.96899 | 7009 ft | 303 kts | 103° |
| 2026-05-04 11:36 | -34.01545 | 150.99358 | 7007 ft | 303 kts | 103° |
| 2026-05-04 11:36 | -34.02085 | 151.01811 | 7007 ft | 303 kts | 103° |
| 2026-05-04 11:37 | -34.02621 | 151.04221 | 7003 ft | 291 kts | 103° |
| 2026-05-04 11:37 | -34.03142 | 151.06520 | 7003 ft | 278 kts | 103° |
| 2026-05-04 11:37 | -34.03650 | 151.08727 | 7007 ft | 271 kts | 103° |
| 2026-05-04 11:37 | -34.04153 | 151.10902 | 7008 ft | 269 kts | 103° |
| 2026-05-04 11:38 | -34.04657 | 151.13079 | 7008 ft | 269 kts | 103° |
| 2026-05-04 11:38 | -34.05153 | 151.15223 | 7008 ft | 269 kts | 103° |
| 2026-05-04 11:38 | -34.05663 | 151.17419 | 7009 ft | 268 kts | 103° |
| 2026-05-04 11:38 | -34.06160 | 151.19582 | 6882 ft | 267 kts | 103° |
| 2026-05-04 11:39 | -34.06643 | 151.21709 | 6582 ft | 266 kts | 103° |
| 2026-05-04 11:39 | -34.07125 | 151.23860 | 6285 ft | 265 kts | 103° |
| 2026-05-04 11:40 | -34.13503 | 151.33315 | 5701 ft | 258 kts | 171° |
| 2026-05-04 11:41 | -34.15223 | 151.33289 | 5245 ft | 243 kts | 204° |
| 2026-05-04 11:41 | -34.16594 | 151.32261 | 4742 ft | 228 kts | 234° |
| 2026-05-04 11:41 | -34.17374 | 151.30665 | 4173 ft | 218 kts | 261° |
| 2026-05-04 11:41 | -34.17288 | 151.28897 | 3632 ft | 211 kts | 294° |
| 2026-05-04 11:42 | -34.16367 | 151.27548 | 3082 ft | 212 kts | 326° |
| 2026-05-04 11:42 | -34.15115 | 151.26712 | 2877 ft | 197 kts | 332° |
| 2026-05-04 11:42 | -34.13948 | 151.26021 | 2740 ft | 181 kts | 333° |
| 2026-05-04 11:42 | -34.12836 | 151.25381 | 2500 ft | 171 kts | 333° |
| 2026-05-04 11:43 | -34.11792 | 151.24764 | 2167 ft | 168 kts | 333° |
| 2026-05-04 11:43 | -34.10788 | 151.24083 | 2012 ft | 168 kts | 320° |
| 2026-05-04 11:43 | -34.10184 | 151.22868 | 2022 ft | 171 kts | 299° |
| 2026-05-04 11:43 | -34.09433 | 151.21853 | 1992 ft | 162 kts | 340° |
| 2026-05-04 11:44 | -34.08286 | 151.21840 | 2028 ft | 171 kts | 7° |
| 2026-05-04 11:44 | -34.07162 | 151.21926 | 1999 ft | 156 kts | 352° |
| 2026-05-04 11:44 | -34.06104 | 151.21707 | 1861 ft | 152 kts | 346° |
| 2026-05-04 11:44 | -34.05119 | 151.21464 | 1629 ft | 134 kts | 346° |
| 2026-05-04 11:45 | -34.04272 | 151.21248 | 1456 ft | 119 kts | 347° |
| 2026-05-04 11:45 | -34.03476 | 151.21043 | 1308 ft | 116 kts | 348° |
| 2026-05-04 11:45 | -34.02693 | 151.20840 | 1155 ft | 115 kts | 348° |
| 2026-05-04 11:45 | -34.01915 | 151.20638 | 1005 ft | 114 kts | 347° |
| 2026-05-04 11:46 | -34.01135 | 151.20436 | 848 ft | 117 kts | 350° |
| 2026-05-04 11:46 | -34.00330 | 151.20227 | 712 ft | 120 kts | 349° |
| 2026-05-04 11:46 | -33.99523 | 151.20017 | 553 ft | 119 kts | 349° |
| 2026-05-04 11:46 | -33.98725 | 151.19810 | 401 ft | 117 kts | 350° |
| 2026-05-04 11:47 | -33.97913 | 151.19596 | 205 ft | 121 kts | 347° |
| 2026-05-04 11:47 | -33.97082 | 151.19369 | 59 ft | 122 kts | 349° |
| 2026-05-04 11:47 | -33.96297 | 151.19167 | 28 ft | 101 kts | 348° |
| 2026-05-04 11:47 | -33.95777 | 151.19039 | 27 ft | 52 kts | 348° |
| 2026-05-04 11:48 | -33.95463 | 151.18951 | 25 ft | 41 kts | 340° |
| 2026-05-04 11:48 | -33.95276 | 151.18831 | 26 ft | 28 kts | 322° |
| 2026-05-04 11:48 | -33.95249 | 151.18806 | 27 ft | 0 kts | 319° |
| 2026-05-04 11:48 | -33.95248 | 151.18804 | 28 ft | 1 kts | 319° |
| 2026-05-04 11:49 | -33.95239 | 151.18794 | 28 ft | 4 kts | 320° |
| 2026-05-04 11:49 | -33.95199 | 151.18755 | 29 ft | 11 kts | 320° |
| 2026-05-04 11:49 | -33.95117 | 151.18668 | 30 ft | 20 kts | 316° |
| 2026-05-04 11:49 | -33.95091 | 151.18487 | 30 ft | 26 kts | 254° |
| 2026-05-04 11:50 | -33.95142 | 151.18273 | 30 ft | 27 kts | 259° |
| 2026-05-04 11:50 | -33.95155 | 151.18189 | 30 ft | 1 kts | 259° |
| 2026-05-04 11:51 | -33.95162 | 151.18142 | 30 ft | 12 kts | 260° |
| 2026-05-04 11:51 | -33.95127 | 151.18042 | 31 ft | 18 kts | 334° |
| 2026-05-04 11:51 | -33.94968 | 151.17998 | 30 ft | 29 kts | 347° |
| 2026-05-04 11:51 | -33.94751 | 151.17941 | 30 ft | 31 kts | 347° |
| 2026-05-04 11:52 | -33.94555 | 151.17889 | 30 ft | 27 kts | 348° |
| 2026-05-04 11:52 | -33.94363 | 151.17899 | 30 ft | 29 kts | 348° |
| 2026-05-04 11:52 | -33.94161 | 151.17845 | 30 ft | 30 kts | 348° |
| 2026-05-04 11:52 | -33.93938 | 151.17789 | 29 ft | 31 kts | 348° |
| 2026-05-04 11:53 | -33.93759 | 151.17689 | 30 ft | 28 kts | 346° |
| 2026-05-04 11:53 | -33.93634 | 151.17629 | 30 ft | 31 kts | 335° |
| 2026-05-04 11:53 | -33.93363 | 151.17586 | 30 ft | 30 kts | 354° |
| 2026-05-04 11:53 | -33.93186 | 151.17564 | 30 ft | 11 kts | 50° |